Advance, Missouri
Current Conditions -  °F | °C
As of 11:53 AM on Friday 31 Oct 2014 (Local Time) from KCGI Reporting Station
Few Clouds Few Clouds  
Wind Chill: 50°   Ceiling: Unl
Heat Index: 50°   Visibility: 10mi
Dew Point: 31°   Wind: 24mph
Humidity: 48%   Direction: 340°NNW
Pressure: 30.18"   Gusts: 36mph
Location:  37.1°N, 89.91°W
Report Text: KCGI 311653Z 34021G31KT 10SM FEW043 FEW050 10/M01 A3018 RMK AO2 PK WND 35031/1649 SLP221 T01001006
Loading
Personal Weather Stations






























Interactive Weather Map
Tropical Storm Tracking
New forecast layout! Learn more

10-Day Weather Forecast

Advertisements
Track Severe Weather on mobile